sensor_id;sensor_type;location;lat;lon;timestamp;P1;durP1;ratioP1;P2;durP2;ratioP2
49366;SDS011;35245;52.026;8.540;2023-09-19T00:00:33;7.88;;;3.67;;
49366;SDS011;35245;52.026;8.540;2023-09-19T00:03:01;8.98;;;3.70;;
49366;SDS011;35245;52.026;8.540;2023-09-19T00:05:34;8.50;;;3.50;;
49366;SDS011;35245;52.026;8.540;2023-09-19T00:08:04;8.05;;;3.42;;
49366;SDS011;35245;52.026;8.540;2023-09-19T00:10:33;9.40;;;4.20;;
49366;SDS011;35245;52.026;8.540;2023-09-19T00:13:01;9.00;;;3.70;;
49366;SDS011;35245;52.026;8.540;2023-09-19T00:15:31;7.57;;;3.78;;
49366;SDS011;35245;52.026;8.540;2023-09-19T00:18:03;5.93;;;3.67;;
49366;SDS011;35245;52.026;8.540;2023-09-19T00:20:34;5.28;;;3.30;;
49366;SDS011;35245;52.026;8.540;2023-09-19T00:23:03;7.13;;;3.42;;
49366;SDS011;35245;52.026;8.540;2023-09-19T00:25:34;7.88;;;3.45;;
49366;SDS011;35245;52.026;8.540;2023-09-19T00:28:02;8.32;;;3.95;;
49366;SDS011;35245;52.026;8.540;2023-09-19T00:30:31;6.07;;;3.53;;
49366;SDS011;35245;52.026;8.540;2023-09-19T00:32:58;7.20;;;3.17;;
49366;SDS011;35245;52.026;8.540;2023-09-19T00:35:30;7.28;;;3.35;;
49366;SDS011;35245;52.026;8.540;2023-09-19T00:37:59;8.55;;;3.90;;
49366;SDS011;35245;52.026;8.540;2023-09-19T00:40:26;6.50;;;3.42;;
49366;SDS011;35245;52.026;8.540;2023-09-19T00:42:57;8.82;;;3.88;;
49366;SDS011;35245;52.026;8.540;2023-09-19T00:45:25;5.88;;;3.22;;
49366;SDS011;35245;52.026;8.540;2023-09-19T00:47:53;8.90;;;3.42;;
49366;SDS011;35245;52.026;8.540;2023-09-19T00:50:22;7.50;;;3.60;;
49366;SDS011;35245;52.026;8.540;2023-09-19T00:52:54;12.98;;;4.00;;
49366;SDS011;35245;52.026;8.540;2023-09-19T00:55:22;12.55;;;3.40;;
49366;SDS011;35245;52.026;8.540;2023-09-19T00:57:53;9.88;;;3.90;;
49366;SDS011;35245;52.026;8.540;2023-09-19T01:00:23;11.73;;;3.50;;
49366;SDS011;35245;52.026;8.540;2023-09-19T01:02:51;9.80;;;4.45;;
49366;SDS011;35245;52.026;8.540;2023-09-19T01:05:18;6.28;;;3.63;;
49366;SDS011;35245;52.026;8.540;2023-09-19T01:07:45;10.35;;;4.13;;
49366;SDS011;35245;52.026;8.540;2023-09-19T01:10:15;10.38;;;3.88;;
49366;SDS011;35245;52.026;8.540;2023-09-19T01:12:48;9.43;;;3.85;;
49366;SDS011;35245;52.026;8.540;2023-09-19T01:15:28;12.98;;;4.32;;
49366;SDS011;35245;52.026;8.540;2023-09-19T01:18:08;8.40;;;4.03;;
49366;SDS011;35245;52.026;8.540;2023-09-19T01:20:51;7.53;;;4.30;;
49366;SDS011;35245;52.026;8.540;2023-09-19T01:23:30;6.82;;;4.47;;
49366;SDS011;35245;52.026;8.540;2023-09-19T01:26:27;11.40;;;4.70;;
49366;SDS011;35245;52.026;8.540;2023-09-19T01:29:17;10.68;;;5.10;;
49366;SDS011;35245;52.026;8.540;2023-09-19T01:32:02;9.77;;;4.43;;
49366;SDS011;35245;52.026;8.540;2023-09-19T01:34:43;11.60;;;4.97;;
49366;SDS011;35245;52.026;8.540;2023-09-19T01:37:13;9.48;;;4.53;;
49366;SDS011;35245;52.026;8.540;2023-09-19T01:39:44;9.32;;;4.57;;
49366;SDS011;35245;52.026;8.540;2023-09-19T01:42:17;9.25;;;4.10;;
49366;SDS011;35245;52.026;8.540;2023-09-19T01:44:57;10.93;;;4.07;;
49366;SDS011;35245;52.026;8.540;2023-09-19T01:47:32;14.32;;;4.80;;
49366;SDS011;35245;52.026;8.540;2023-09-19T01:50:04;16.08;;;5.10;;
49366;SDS011;35245;52.026;8.540;2023-09-19T01:52:42;10.27;;;4.63;;
49366;SDS011;35245;52.026;8.540;2023-09-19T01:55:15;11.10;;;4.32;;
49366;SDS011;35245;52.026;8.540;2023-09-19T01:57:48;11.73;;;4.53;;
49366;SDS011;35245;52.026;8.540;2023-09-19T02:00:24;10.43;;;4.88;;
49366;SDS011;35245;52.026;8.540;2023-09-19T02:02:56;9.35;;;3.55;;
49366;SDS011;35245;52.026;8.540;2023-09-19T02:05:25;11.30;;;3.70;;
49366;SDS011;35245;52.026;8.540;2023-09-19T02:07:53;10.60;;;4.38;;
49366;SDS011;35245;52.026;8.540;2023-09-19T02:10:20;8.48;;;4.00;;
49366;SDS011;35245;52.026;8.540;2023-09-19T02:12:49;12.70;;;4.20;;
49366;SDS011;35245;52.026;8.540;2023-09-19T02:15:17;11.40;;;3.72;;
49366;SDS011;35245;52.026;8.540;2023-09-19T02:17:44;16.52;;;4.13;;
49366;SDS011;35245;52.026;8.540;2023-09-19T02:20:13;12.10;;;4.45;;
49366;SDS011;35245;52.026;8.540;2023-09-19T02:22:42;10.02;;;3.67;;
49366;SDS011;35245;52.026;8.540;2023-09-19T02:25:09;10.25;;;3.65;;
49366;SDS011;35245;52.026;8.540;2023-09-19T02:27:38;16.23;;;4.38;;
49366;SDS011;35245;52.026;8.540;2023-09-19T02:30:06;9.25;;;3.42;;
49366;SDS011;35245;52.026;8.540;2023-09-19T02:32:34;10.70;;;4.32;;
49366;SDS011;35245;52.026;8.540;2023-09-19T02:35:04;13.77;;;4.07;;
49366;SDS011;35245;52.026;8.540;2023-09-19T02:37:37;9.63;;;3.30;;
49366;SDS011;35245;52.026;8.540;2023-09-19T02:40:05;9.18;;;3.50;;
49366;SDS011;35245;52.026;8.540;2023-09-19T02:42:43;13.15;;;3.58;;
49366;SDS011;35245;52.026;8.540;2023-09-19T02:45:14;10.15;;;3.60;;
49366;SDS011;35245;52.026;8.540;2023-09-19T02:47:42;14.43;;;3.22;;
49366;SDS011;35245;52.026;8.540;2023-09-19T02:50:10;7.72;;;3.03;;
49366;SDS011;35245;52.026;8.540;2023-09-19T02:52:40;10.90;;;4.07;;
49366;SDS011;35245;52.026;8.540;2023-09-19T02:55:09;11.77;;;3.25;;
49366;SDS011;35245;52.026;8.540;2023-09-19T02:57:39;12.30;;;3.80;;
49366;SDS011;35245;52.026;8.540;2023-09-19T03:00:08;10.27;;;3.35;;
49366;SDS011;35245;52.026;8.540;2023-09-19T03:02:37;12.30;;;3.75;;
49366;SDS011;35245;52.026;8.540;2023-09-19T03:05:06;12.73;;;3.67;;
49366;SDS011;35245;52.026;8.540;2023-09-19T03:07:36;10.05;;;3.70;;
49366;SDS011;35245;52.026;8.540;2023-09-19T03:10:05;13.25;;;3.63;;
49366;SDS011;35245;52.026;8.540;2023-09-19T03:12:34;12.77;;;3.38;;
49366;SDS011;35245;52.026;8.540;2023-09-19T03:15:02;14.50;;;3.42;;
49366;SDS011;35245;52.026;8.540;2023-09-19T03:17:30;17.30;;;3.20;;
49366;SDS011;35245;52.026;8.540;2023-09-19T03:19:57;15.38;;;3.55;;
49366;SDS011;35245;52.026;8.540;2023-09-19T03:22:25;13.40;;;3.50;;
49366;SDS011;35245;52.026;8.540;2023-09-19T03:24:53;11.68;;;3.45;;
49366;SDS011;35245;52.026;8.540;2023-09-19T03:27:22;12.32;;;3.92;;
49366;SDS011;35245;52.026;8.540;2023-09-19T03:29:49;15.15;;;4.13;;
49366;SDS011;35245;52.026;8.540;2023-09-19T03:32:17;11.60;;;3.85;;
49366;SDS011;35245;52.026;8.540;2023-09-19T03:34:44;16.65;;;3.88;;
49366;SDS011;35245;52.026;8.540;2023-09-19T03:37:13;14.25;;;3.75;;
49366;SDS011;35245;52.026;8.540;2023-09-19T03:39:41;15.95;;;4.05;;
49366;SDS011;35245;52.026;8.540;2023-09-19T03:42:08;10.32;;;4.20;;
49366;SDS011;35245;52.026;8.540;2023-09-19T03:44:37;11.98;;;3.55;;
49366;SDS011;35245;52.026;8.540;2023-09-19T03:47:04;13.98;;;3.67;;
49366;SDS011;35245;52.026;8.540;2023-09-19T03:49:32;14.02;;;3.83;;
49366;SDS011;35245;52.026;8.540;2023-09-19T03:52:00;14.40;;;3.83;;
49366;SDS011;35245;52.026;8.540;2023-09-19T03:54:27;12.60;;;3.80;;
49366;SDS011;35245;52.026;8.540;2023-09-19T03:56:54;15.43;;;3.72;;
49366;SDS011;35245;52.026;8.540;2023-09-19T03:59:21;11.98;;;3.58;;
49366;SDS011;35245;52.026;8.540;2023-09-19T04:01:49;11.93;;;3.13;;
49366;SDS011;35245;52.026;8.540;2023-09-19T04:04:21;11.73;;;3.10;;
49366;SDS011;35245;52.026;8.540;2023-09-19T04:06:50;14.50;;;3.92;;
49366;SDS011;35245;52.026;8.540;2023-09-19T04:09:17;12.80;;;3.50;;
49366;SDS011;35245;52.026;8.540;2023-09-19T04:11:44;9.98;;;3.00;;
49366;SDS011;35245;52.026;8.540;2023-09-19T04:14:11;18.13;;;4.05;;
49366;SDS011;35245;52.026;8.540;2023-09-19T04:16:38;13.90;;;3.83;;
49366;SDS011;35245;52.026;8.540;2023-09-19T04:19:07;18.20;;;4.22;;
49366;SDS011;35245;52.026;8.540;2023-09-19T04:21:34;10.20;;;3.83;;
49366;SDS011;35245;52.026;8.540;2023-09-19T04:24:01;17.52;;;3.95;;
49366;SDS011;35245;52.026;8.540;2023-09-19T04:26:28;12.65;;;3.53;;
49366;SDS011;35245;52.026;8.540;2023-09-19T04:28:55;15.50;;;4.05;;
49366;SDS011;35245;52.026;8.540;2023-09-19T04:31:23;12.25;;;3.53;;
49366;SDS011;35245;52.026;8.540;2023-09-19T04:33:50;15.15;;;3.53;;
49366;SDS011;35245;52.026;8.540;2023-09-19T04:36:18;14.60;;;3.40;;
49366;SDS011;35245;52.026;8.540;2023-09-19T04:38:46;13.23;;;3.20;;
49366;SDS011;35245;52.026;8.540;2023-09-19T04:41:13;14.40;;;3.00;;
49366;SDS011;35245;52.026;8.540;2023-09-19T04:43:40;13.70;;;2.85;;
49366;SDS011;35245;52.026;8.540;2023-09-19T04:46:07;10.35;;;3.00;;
49366;SDS011;35245;52.026;8.540;2023-09-19T04:48:34;16.63;;;3.00;;
49366;SDS011;35245;52.026;8.540;2023-09-19T04:51:02;12.40;;;4.03;;
49366;SDS011;35245;52.026;8.540;2023-09-19T04:53:30;14.52;;;3.47;;
49366;SDS011;35245;52.026;8.540;2023-09-19T04:55:57;10.93;;;3.17;;
49366;SDS011;35245;52.026;8.540;2023-09-19T04:58:24;10.50;;;3.40;;
49366;SDS011;35245;52.026;8.540;2023-09-19T05:00:51;14.50;;;3.58;;
49366;SDS011;35245;52.026;8.540;2023-09-19T05:03:19;10.20;;;3.67;;
49366;SDS011;35245;52.026;8.540;2023-09-19T05:05:47;11.32;;;2.97;;
49366;SDS011;35245;52.026;8.540;2023-09-19T05:08:15;16.58;;;3.60;;
49366;SDS011;35245;52.026;8.540;2023-09-19T05:10:43;9.82;;;3.05;;
49366;SDS011;35245;52.026;8.540;2023-09-19T05:13:10;10.05;;;3.35;;
49366;SDS011;35245;52.026;8.540;2023-09-19T05:15:38;13.13;;;3.28;;
49366;SDS011;35245;52.026;8.540;2023-09-19T05:18:05;9.57;;;2.60;;
49366;SDS011;35245;52.026;8.540;2023-09-19T05:20:32;10.93;;;3.08;;
49366;SDS011;35245;52.026;8.540;2023-09-19T05:23:03;17.73;;;3.75;;
49366;SDS011;35245;52.026;8.540;2023-09-19T05:25:32;15.43;;;3.53;;
49366;SDS011;35245;52.026;8.540;2023-09-19T05:28:04;13.93;;;4.38;;
49366;SDS011;35245;52.026;8.540;2023-09-19T05:30:32;14.95;;;3.58;;
49366;SDS011;35245;52.026;8.540;2023-09-19T05:33:01;19.75;;;4.65;;
49366;SDS011;35245;52.026;8.540;2023-09-19T05:35:29;9.88;;;3.15;;
49366;SDS011;35245;52.026;8.540;2023-09-19T05:37:57;12.90;;;3.33;;
49366;SDS011;35245;52.026;8.540;2023-09-19T05:40:24;17.35;;;3.90;;
49366;SDS011;35245;52.026;8.540;2023-09-19T05:42:52;15.43;;;3.60;;
49366;SDS011;35245;52.026;8.540;2023-09-19T05:45:20;10.50;;;3.55;;
49366;SDS011;35245;52.026;8.540;2023-09-19T05:47:48;13.15;;;3.22;;
49366;SDS011;35245;52.026;8.540;2023-09-19T05:50:16;12.43;;;3.58;;
49366;SDS011;35245;52.026;8.540;2023-09-19T05:52:50;11.27;;;3.35;;
49366;SDS011;35245;52.026;8.540;2023-09-19T05:55:18;12.90;;;2.95;;
49366;SDS011;35245;52.026;8.540;2023-09-19T05:57:49;13.77;;;3.50;;
49366;SDS011;35245;52.026;8.540;2023-09-19T06:00:17;11.95;;;3.40;;
49366;SDS011;35245;52.026;8.540;2023-09-19T06:02:50;10.77;;;3.42;;
49366;SDS011;35245;52.026;8.540;2023-09-19T06:05:18;12.35;;;3.53;;
49366;SDS011;35245;52.026;8.540;2023-09-19T06:07:46;13.23;;;3.97;;
49366;SDS011;35245;52.026;8.540;2023-09-19T06:10:13;15.10;;;3.67;;
49366;SDS011;35245;52.026;8.540;2023-09-19T06:12:40;11.13;;;3.47;;
49366;SDS011;35245;52.026;8.540;2023-09-19T06:15:09;16.17;;;3.90;;
49366;SDS011;35245;52.026;8.540;2023-09-19T06:17:40;18.52;;;4.13;;
49366;SDS011;35245;52.026;8.540;2023-09-19T06:20:09;11.10;;;3.38;;
49366;SDS011;35245;52.026;8.540;2023-09-19T06:22:40;12.27;;;3.60;;
49366;SDS011;35245;52.026;8.540;2023-09-19T06:25:08;17.45;;;5.35;;
49366;SDS011;35245;52.026;8.540;2023-09-19T06:27:37;13.30;;;3.53;;
49366;SDS011;35245;52.026;8.540;2023-09-19T06:30:06;16.38;;;3.35;;
49366;SDS011;35245;52.026;8.540;2023-09-19T06:32:36;11.50;;;3.10;;
49366;SDS011;35245;52.026;8.540;2023-09-19T06:35:04;9.27;;;2.88;;
49366;SDS011;35245;52.026;8.540;2023-09-19T06:37:35;12.98;;;3.20;;
49366;SDS011;35245;52.026;8.540;2023-09-19T06:40:03;10.07;;;3.17;;
49366;SDS011;35245;52.026;8.540;2023-09-19T06:42:34;10.70;;;2.92;;
49366;SDS011;35245;52.026;8.540;2023-09-19T06:45:03;14.13;;;3.50;;
49366;SDS011;35245;52.026;8.540;2023-09-19T06:47:31;13.32;;;3.10;;
49366;SDS011;35245;52.026;8.540;2023-09-19T06:49:58;9.20;;;3.13;;
49366;SDS011;35245;52.026;8.540;2023-09-19T06:52:27;13.48;;;3.10;;
49366;SDS011;35245;52.026;8.540;2023-09-19T06:54:56;11.48;;;2.97;;
49366;SDS011;35245;52.026;8.540;2023-09-19T06:57:23;16.10;;;3.35;;
49366;SDS011;35245;52.026;8.540;2023-09-19T06:59:50;12.90;;;3.28;;
49366;SDS011;35245;52.026;8.540;2023-09-19T07:02:17;13.15;;;3.70;;
49366;SDS011;35245;52.026;8.540;2023-09-19T07:04:47;12.77;;;3.22;;
49366;SDS011;35245;52.026;8.540;2023-09-19T07:07:14;8.15;;;2.97;;
49366;SDS011;35245;52.026;8.540;2023-09-19T07:09:41;13.65;;;2.65;;
49366;SDS011;35245;52.026;8.540;2023-09-19T07:12:10;13.18;;;3.78;;
49366;SDS011;35245;52.026;8.540;2023-09-19T07:14:38;11.55;;;3.08;;
49366;SDS011;35245;52.026;8.540;2023-09-19T07:17:05;11.50;;;2.90;;
49366;SDS011;35245;52.026;8.540;2023-09-19T07:19:32;12.13;;;2.75;;
49366;SDS011;35245;52.026;8.540;2023-09-19T07:22:00;16.17;;;3.03;;
49366;SDS011;35245;52.026;8.540;2023-09-19T07:24:27;11.85;;;3.22;;
49366;SDS011;35245;52.026;8.540;2023-09-19T07:26:56;11.75;;;2.97;;
49366;SDS011;35245;52.026;8.540;2023-09-19T07:29:24;13.48;;;3.17;;
49366;SDS011;35245;52.026;8.540;2023-09-19T07:31:52;8.38;;;2.67;;
49366;SDS011;35245;52.026;8.540;2023-09-19T07:34:19;9.55;;;2.72;;
49366;SDS011;35245;52.026;8.540;2023-09-19T07:36:48;12.95;;;3.10;;
49366;SDS011;35245;52.026;8.540;2023-09-19T07:39:15;14.05;;;2.97;;
49366;SDS011;35245;52.026;8.540;2023-09-19T07:41:42;11.43;;;2.70;;
49366;SDS011;35245;52.026;8.540;2023-09-19T07:44:09;11.57;;;3.03;;
49366;SDS011;35245;52.026;8.540;2023-09-19T07:46:38;11.20;;;3.72;;
49366;SDS011;35245;52.026;8.540;2023-09-19T07:49:05;15.25;;;3.22;;
49366;SDS011;35245;52.026;8.540;2023-09-19T07:51:33;12.23;;;3.33;;
49366;SDS011;35245;52.026;8.540;2023-09-19T07:54:00;10.05;;;2.97;;
49366;SDS011;35245;52.026;8.540;2023-09-19T07:56:28;14.13;;;3.25;;
49366;SDS011;35245;52.026;8.540;2023-09-19T07:58:57;12.52;;;3.03;;
49366;SDS011;35245;52.026;8.540;2023-09-19T08:01:24;12.25;;;3.47;;
49366;SDS011;35245;52.026;8.540;2023-09-19T08:03:53;11.10;;;3.28;;
49366;SDS011;35245;52.026;8.540;2023-09-19T08:06:20;11.35;;;2.95;;
49366;SDS011;35245;52.026;8.540;2023-09-19T08:08:50;9.70;;;3.15;;
49366;SDS011;35245;52.026;8.540;2023-09-19T08:11:20;12.00;;;2.65;;
49366;SDS011;35245;52.026;8.540;2023-09-19T08:13:49;11.82;;;3.33;;
49366;SDS011;35245;52.026;8.540;2023-09-19T08:16:17;10.13;;;3.45;;
49366;SDS011;35245;52.026;8.540;2023-09-19T08:18:47;13.25;;;3.58;;
49366;SDS011;35245;52.026;8.540;2023-09-19T08:21:21;10.43;;;2.85;;
49366;SDS011;35245;52.026;8.540;2023-09-19T08:23:49;8.20;;;2.80;;
49366;SDS011;35245;52.026;8.540;2023-09-19T08:26:16;10.85;;;3.20;;
49366;SDS011;35245;52.026;8.540;2023-09-19T08:28:44;18.08;;;3.55;;
49366;SDS011;35245;52.026;8.540;2023-09-19T08:31:13;16.90;;;3.85;;
49366;SDS011;35245;52.026;8.540;2023-09-19T08:33:41;8.30;;;3.20;;
49366;SDS011;35245;52.026;8.540;2023-09-19T08:36:09;14.38;;;3.28;;
49366;SDS011;35245;52.026;8.540;2023-09-19T08:38:38;10.52;;;3.50;;
49366;SDS011;35245;52.026;8.540;2023-09-19T08:41:06;13.13;;;2.80;;
49366;SDS011;35245;52.026;8.540;2023-09-19T08:43:34;11.27;;;3.17;;
49366;SDS011;35245;52.026;8.540;2023-09-19T08:46:03;11.35;;;2.88;;
49366;SDS011;35245;52.026;8.540;2023-09-19T08:48:39;13.38;;;3.10;;
49366;SDS011;35245;52.026;8.540;2023-09-19T08:51:17;12.60;;;3.70;;
49366;SDS011;35245;52.026;8.540;2023-09-19T08:53:54;11.65;;;3.13;;
49366;SDS011;35245;52.026;8.540;2023-09-19T08:56:30;13.52;;;3.85;;
49366;SDS011;35245;52.026;8.540;2023-09-19T08:59:00;13.30;;;3.88;;
49366;SDS011;35245;52.026;8.540;2023-09-19T09:01:32;17.65;;;3.20;;
49366;SDS011;35245;52.026;8.540;2023-09-19T09:04:01;17.20;;;3.53;;
49366;SDS011;35245;52.026;8.540;2023-09-19T09:06:29;10.40;;;3.30;;
49366;SDS011;35245;52.026;8.540;2023-09-19T09:08:59;17.13;;;3.47;;
49366;SDS011;35245;52.026;8.540;2023-09-19T09:11:26;11.40;;;3.17;;
49366;SDS011;35245;52.026;8.540;2023-09-19T09:13:54;17.55;;;3.28;;
49366;SDS011;35245;52.026;8.540;2023-09-19T09:16:22;12.57;;;3.63;;
49366;SDS011;35245;52.026;8.540;2023-09-19T09:18:50;14.30;;;3.50;;
49366;SDS011;35245;52.026;8.540;2023-09-19T09:21:19;17.30;;;3.55;;
49366;SDS011;35245;52.026;8.540;2023-09-19T09:23:47;12.45;;;3.15;;
49366;SDS011;35245;52.026;8.540;2023-09-19T09:26:16;16.50;;;3.60;;
49366;SDS011;35245;52.026;8.540;2023-09-19T09:28:49;15.70;;;4.07;;
49366;SDS011;35245;52.026;8.540;2023-09-19T09:31:22;32.08;;;5.35;;
49366;SDS011;35245;52.026;8.540;2023-09-19T09:33:54;15.45;;;3.40;;
49366;SDS011;35245;52.026;8.540;2023-09-19T09:36:33;9.32;;;3.65;;
49366;SDS011;35245;52.026;8.540;2023-09-19T09:39:02;16.38;;;4.15;;
49366;SDS011;35245;52.026;8.540;2023-09-19T09:41:42;13.05;;;3.30;;
49366;SDS011;35245;52.026;8.540;2023-09-19T09:44:12;14.43;;;3.40;;
49366;SDS011;35245;52.026;8.540;2023-09-19T09:46:42;13.93;;;2.97;;
49366;SDS011;35245;52.026;8.540;2023-09-19T09:49:41;13.80;;;3.60;;
49366;SDS011;35245;52.026;8.540;2023-09-19T09:52:19;11.93;;;3.50;;
49366;SDS011;35245;52.026;8.540;2023-09-19T09:54:58;13.35;;;3.38;;
49366;SDS011;35245;52.026;8.540;2023-09-19T09:57:31;15.05;;;3.15;;
49366;SDS011;35245;52.026;8.540;2023-09-19T09:59:59;11.82;;;3.00;;
49366;SDS011;35245;52.026;8.540;2023-09-19T10:02:41;8.75;;;2.88;;
49366;SDS011;35245;52.026;8.540;2023-09-19T10:05:12;14.95;;;3.38;;
49366;SDS011;35245;52.026;8.540;2023-09-19T10:07:46;8.95;;;2.85;;
49366;SDS011;35245;52.026;8.540;2023-09-19T10:10:28;14.23;;;3.30;;
49366;SDS011;35245;52.026;8.540;2023-09-19T10:13:20;8.40;;;3.30;;
49366;SDS011;35245;52.026;8.540;2023-09-19T10:15:49;11.60;;;3.65;;
49366;SDS011;35245;52.026;8.540;2023-09-19T10:18:20;12.70;;;3.58;;
49366;SDS011;35245;52.026;8.540;2023-09-19T10:20:50;13.93;;;3.30;;
49366;SDS011;35245;52.026;8.540;2023-09-19T10:23:18;10.63;;;3.13;;
49366;SDS011;35245;52.026;8.540;2023-09-19T10:32:57;12.85;;;3.35;;
49366;SDS011;35245;52.026;8.540;2023-09-19T10:35:28;15.35;;;3.35;;
49366;SDS011;35245;52.026;8.540;2023-09-19T10:37:57;9.75;;;2.70;;
49366;SDS011;35245;52.026;8.540;2023-09-19T10:40:28;12.75;;;3.15;;
49366;SDS011;35245;52.026;8.540;2023-09-19T10:43:03;11.70;;;3.00;;
49366;SDS011;35245;52.026;8.540;2023-09-19T10:45:33;9.98;;;2.97;;
49366;SDS011;35245;52.026;8.540;2023-09-19T10:48:04;11.25;;;2.80;;
49366;SDS011;35245;52.026;8.540;2023-09-19T10:50:37;9.25;;;2.67;;
49366;SDS011;35245;52.026;8.540;2023-09-19T10:53:11;16.75;;;3.30;;
49366;SDS011;35245;52.026;8.540;2023-09-19T10:55:40;21.65;;;4.03;;
49366;SDS011;35245;52.026;8.540;2023-09-19T10:58:13;10.63;;;3.00;;
49366;SDS011;35245;52.026;8.540;2023-09-19T11:00:55;11.80;;;3.47;;
49366;SDS011;35245;52.026;8.540;2023-09-19T11:03:30;12.32;;;3.40;;
49366;SDS011;35245;52.026;8.540;2023-09-19T11:06:05;11.18;;;3.20;;
49366;SDS011;35245;52.026;8.540;2023-09-19T11:08:51;13.38;;;3.40;;
49366;SDS011;35245;52.026;8.540;2023-09-19T11:11:38;9.20;;;2.80;;
49366;SDS011;35245;52.026;8.540;2023-09-19T11:14:14;10.00;;;2.83;;
49366;SDS011;35245;52.026;8.540;2023-09-19T11:20:24;8.80;;;2.35;;
49366;SDS011;35245;52.026;8.540;2023-09-19T11:25:56;9.35;;;2.75;;
49366;SDS011;35245;52.026;8.540;2023-09-19T11:28:30;12.85;;;3.38;;
49366;SDS011;35245;52.026;8.540;2023-09-19T11:40:35;12.40;;;3.35;;
49366;SDS011;35245;52.026;8.540;2023-09-19T11:46:05;7.72;;;2.40;;
49366;SDS011;35245;52.026;8.540;2023-09-19T11:48:34;17.52;;;4.00;;
49366;SDS011;35245;52.026;8.540;2023-09-19T11:51:17;9.48;;;3.08;;
49366;SDS011;35245;52.026;8.540;2023-09-19T11:53:47;12.10;;;2.88;;
49366;SDS011;35245;52.026;8.540;2023-09-19T11:56:16;13.30;;;3.42;;
49366;SDS011;35245;52.026;8.540;2023-09-19T11:58:45;13.10;;;3.35;;
49366;SDS011;35245;52.026;8.540;2023-09-19T12:01:21;10.27;;;3.13;;
49366;SDS011;35245;52.026;8.540;2023-09-19T12:03:52;14.02;;;2.97;;
49366;SDS011;35245;52.026;8.540;2023-09-19T12:06:24;12.68;;;3.30;;
49366;SDS011;35245;52.026;8.540;2023-09-19T12:08:52;10.80;;;3.28;;
49366;SDS011;35245;52.026;8.540;2023-09-19T12:11:21;9.45;;;3.33;;
49366;SDS011;35245;52.026;8.540;2023-09-19T12:13:52;12.13;;;3.58;;
49366;SDS011;35245;52.026;8.540;2023-09-19T12:16:24;9.13;;;2.83;;
49366;SDS011;35245;52.026;8.540;2023-09-19T12:18:55;12.13;;;3.35;;
49366;SDS011;35245;52.026;8.540;2023-09-19T12:21:25;13.57;;;3.03;;
49366;SDS011;35245;52.026;8.540;2023-09-19T12:23:57;8.20;;;2.95;;
49366;SDS011;35245;52.026;8.540;2023-09-19T12:26:41;7.97;;;2.92;;
49366;SDS011;35245;52.026;8.540;2023-09-19T12:29:13;12.30;;;3.67;;
49366;SDS011;35245;52.026;8.540;2023-09-19T12:31:50;12.98;;;4.05;;
49366;SDS011;35245;52.026;8.540;2023-09-19T12:34:22;8.07;;;2.90;;
49366;SDS011;35245;52.026;8.540;2023-09-19T12:37:06;10.98;;;3.22;;
49366;SDS011;35245;52.026;8.540;2023-09-19T12:39:42;9.43;;;2.70;;
49366;SDS011;35245;52.026;8.540;2023-09-19T12:42:14;10.88;;;2.97;;
49366;SDS011;35245;52.026;8.540;2023-09-19T12:44:43;8.98;;;2.88;;
49366;SDS011;35245;52.026;8.540;2023-09-19T12:47:12;7.32;;;2.60;;
49366;SDS011;35245;52.026;8.540;2023-09-19T12:52:42;9.40;;;3.00;;
49366;SDS011;35245;52.026;8.540;2023-09-19T12:55:25;14.52;;;3.20;;
49366;SDS011;35245;52.026;8.540;2023-09-19T12:58:03;9.63;;;3.45;;
49366;SDS011;35245;52.026;8.540;2023-09-19T13:00:38;13.10;;;4.13;;
49366;SDS011;35245;52.026;8.540;2023-09-19T13:03:13;9.45;;;3.22;;
49366;SDS011;35245;52.026;8.540;2023-09-19T13:05:50;6.68;;;2.65;;
49366;SDS011;35245;52.026;8.540;2023-09-19T13:08:21;12.48;;;3.13;;
49366;SDS011;35245;52.026;8.540;2023-09-19T13:11:07;17.58;;;3.45;;
49366;SDS011;35245;52.026;8.540;2023-09-19T13:13:38;10.35;;;3.08;;
49366;SDS011;35245;52.026;8.540;2023-09-19T13:16:09;13.73;;;3.25;;
49366;SDS011;35245;52.026;8.540;2023-09-19T13:18:43;9.88;;;2.95;;
49366;SDS011;35245;52.026;8.540;2023-09-19T13:21:12;7.00;;;2.70;;
49366;SDS011;35245;52.026;8.540;2023-09-19T13:23:53;14.23;;;2.90;;
49366;SDS011;35245;52.026;8.540;2023-09-19T13:26:24;6.97;;;2.60;;
49366;SDS011;35245;52.026;8.540;2023-09-19T13:28:53;11.70;;;2.58;;
49366;SDS011;35245;52.026;8.540;2023-09-19T13:31:20;11.20;;;3.10;;
49366;SDS011;35245;52.026;8.540;2023-09-19T13:33:48;8.32;;;2.85;;
49366;SDS011;35245;52.026;8.540;2023-09-19T13:36:17;8.27;;;2.58;;
49366;SDS011;35245;52.026;8.540;2023-09-19T13:38:44;9.77;;;2.63;;
49366;SDS011;35245;52.026;8.540;2023-09-19T13:41:15;8.27;;;3.00;;
49366;SDS011;35245;52.026;8.540;2023-09-19T13:43:42;33.70;;;5.13;;
49366;SDS011;35245;52.026;8.540;2023-09-19T13:46:14;5.78;;;2.08;;
49366;SDS011;35245;52.026;8.540;2023-09-19T13:48:42;8.30;;;2.97;;
49366;SDS011;35245;52.026;8.540;2023-09-19T13:51:10;8.57;;;3.05;;
49366;SDS011;35245;52.026;8.540;2023-09-19T13:53:37;11.27;;;2.85;;
49366;SDS011;35245;52.026;8.540;2023-09-19T13:56:04;6.93;;;2.13;;
49366;SDS011;35245;52.026;8.540;2023-09-19T13:58:33;18.58;;;3.22;;
49366;SDS011;35245;52.026;8.540;2023-09-19T14:01:00;7.68;;;2.63;;
49366;SDS011;35245;52.026;8.540;2023-09-19T14:03:28;9.18;;;2.10;;
49366;SDS011;35245;52.026;8.540;2023-09-19T14:05:55;7.60;;;2.38;;
49366;SDS011;35245;52.026;8.540;2023-09-19T14:08:22;7.70;;;2.53;;
49366;SDS011;35245;52.026;8.540;2023-09-19T14:10:49;19.52;;;3.33;;
49366;SDS011;35245;52.026;8.540;2023-09-19T14:13:16;7.50;;;2.33;;
49366;SDS011;35245;52.026;8.540;2023-09-19T14:15:46;5.72;;;2.53;;
49366;SDS011;35245;52.026;8.540;2023-09-19T14:18:14;6.57;;;2.15;;
49366;SDS011;35245;52.026;8.540;2023-09-19T14:20:41;4.72;;;2.08;;
49366;SDS011;35245;52.026;8.540;2023-09-19T14:23:08;9.13;;;2.20;;
49366;SDS011;35245;52.026;8.540;2023-09-19T14:25:36;7.57;;;2.58;;
49366;SDS011;35245;52.026;8.540;2023-09-19T14:28:04;8.73;;;2.97;;
49366;SDS011;35245;52.026;8.540;2023-09-19T14:30:33;9.35;;;2.72;;
49366;SDS011;35245;52.026;8.540;2023-09-19T14:33:03;7.85;;;2.90;;
49366;SDS011;35245;52.026;8.540;2023-09-19T14:35:31;6.00;;;2.33;;
49366;SDS011;35245;52.026;8.540;2023-09-19T14:37:58;5.60;;;2.20;;
49366;SDS011;35245;52.026;8.540;2023-09-19T14:40:25;6.70;;;2.45;;
49366;SDS011;35245;52.026;8.540;2023-09-19T14:42:52;8.30;;;2.28;;
49366;SDS011;35245;52.026;8.540;2023-09-19T14:45:19;10.00;;;2.60;;
49366;SDS011;35245;52.026;8.540;2023-09-19T14:47:46;8.63;;;2.00;;
49366;SDS011;35245;52.026;8.540;2023-09-19T14:50:19;6.22;;;2.35;;
49366;SDS011;35245;52.026;8.540;2023-09-19T14:52:47;7.88;;;2.10;;
49366;SDS011;35245;52.026;8.540;2023-09-19T14:55:14;9.65;;;2.55;;
49366;SDS011;35245;52.026;8.540;2023-09-19T14:57:41;5.95;;;2.17;;
49366;SDS011;35245;52.026;8.540;2023-09-19T15:00:11;7.35;;;2.45;;
49366;SDS011;35245;52.026;8.540;2023-09-19T15:02:39;8.73;;;2.55;;
49366;SDS011;35245;52.026;8.540;2023-09-19T15:05:06;6.75;;;2.80;;
49366;SDS011;35245;52.026;8.540;2023-09-19T15:07:36;5.20;;;2.55;;
49366;SDS011;35245;52.026;8.540;2023-09-19T15:10:04;9.48;;;2.55;;
49366;SDS011;35245;52.026;8.540;2023-09-19T15:12:34;7.57;;;2.88;;
49366;SDS011;35245;52.026;8.540;2023-09-19T15:15:03;7.82;;;2.58;;
49366;SDS011;35245;52.026;8.540;2023-09-19T15:17:32;7.18;;;3.13;;
49366;SDS011;35245;52.026;8.540;2023-09-19T15:19:59;9.68;;;2.88;;
49366;SDS011;35245;52.026;8.540;2023-09-19T15:22:27;9.38;;;3.47;;
49366;SDS011;35245;52.026;8.540;2023-09-19T15:24:55;8.85;;;2.70;;